sensor_id;sensor_type;location;lat;lon;timestamp;temperature;humidity
51661;DHT22;37741;49.748;8.490;2023-03-02T00:01:06;3.20;64.70
51661;DHT22;37741;49.748;8.490;2023-03-02T00:03:38;3.20;64.80
51661;DHT22;37741;49.748;8.490;2023-03-02T00:06:05;3.20;64.90
51661;DHT22;37741;49.748;8.490;2023-03-02T00:08:31;3.20;65.00
51661;DHT22;37741;49.748;8.490;2023-03-02T00:10:57;3.20;65.00
51661;DHT22;37741;49.748;8.490;2023-03-02T00:13:25;3.10;64.90
51661;DHT22;37741;49.748;8.490;2023-03-02T00:15:51;3.10;65.00
51661;DHT22;37741;49.748;8.490;2023-03-02T00:18:17;3.10;65.00
51661;DHT22;37741;49.748;8.490;2023-03-02T00:20:42;3.10;65.00
51661;DHT22;37741;49.748;8.490;2023-03-02T00:23:08;3.10;65.20
51661;DHT22;37741;49.748;8.490;2023-03-02T00:25:35;3.10;65.20
51661;DHT22;37741;49.748;8.490;2023-03-02T00:28:00;3.10;65.20
51661;DHT22;37741;49.748;8.490;2023-03-02T00:30:26;3.10;65.30
51661;DHT22;37741;49.748;8.490;2023-03-02T00:32:51;3.00;65.30
51661;DHT22;37741;49.748;8.490;2023-03-02T00:35:17;3.00;65.30
51661;DHT22;37741;49.748;8.490;2023-03-02T00:37:43;3.00;65.30
51661;DHT22;37741;49.748;8.490;2023-03-02T00:40:09;3.00;65.40
51661;DHT22;37741;49.748;8.490;2023-03-02T00:42:37;3.00;65.50
51661;DHT22;37741;49.748;8.490;2023-03-02T00:45:04;2.90;65.50
51661;DHT22;37741;49.748;8.490;2023-03-02T00:47:33;3.00;65.60
51661;DHT22;37741;49.748;8.490;2023-03-02T00:49:59;3.00;65.50
51661;DHT22;37741;49.748;8.490;2023-03-02T00:52:25;2.90;65.60
51661;DHT22;37741;49.748;8.490;2023-03-02T00:54:51;2.90;65.70
51661;DHT22;37741;49.748;8.490;2023-03-02T00:57:16;2.90;65.70
51661;DHT22;37741;49.748;8.490;2023-03-02T00:59:42;2.90;65.80
51661;DHT22;37741;49.748;8.490;2023-03-02T01:02:08;2.90;65.80
51661;DHT22;37741;49.748;8.490;2023-03-02T01:04:36;2.90;65.80
51661;DHT22;37741;49.748;8.490;2023-03-02T01:07:12;2.80;65.80
51661;DHT22;37741;49.748;8.490;2023-03-02T01:09:40;2.90;65.90
51661;DHT22;37741;49.748;8.490;2023-03-02T01:12:06;2.90;65.90
51661;DHT22;37741;49.748;8.490;2023-03-02T01:14:38;2.80;65.70
51661;DHT22;37741;49.748;8.490;2023-03-02T01:17:05;2.80;65.90
51661;DHT22;37741;49.748;8.490;2023-03-02T01:19:32;2.80;66.00
51661;DHT22;37741;49.748;8.490;2023-03-02T01:21:57;2.80;66.10
51661;DHT22;37741;49.748;8.490;2023-03-02T01:24:23;2.80;66.00
51661;DHT22;37741;49.748;8.490;2023-03-02T01:26:49;2.80;66.10
51661;DHT22;37741;49.748;8.490;2023-03-02T01:29:14;2.70;66.30
51661;DHT22;37741;49.748;8.490;2023-03-02T01:31:40;2.70;66.30
51661;DHT22;37741;49.748;8.490;2023-03-02T01:34:06;2.70;66.40
51661;DHT22;37741;49.748;8.490;2023-03-02T01:36:32;2.70;66.30
51661;DHT22;37741;49.748;8.490;2023-03-02T01:38:57;2.70;66.40
51661;DHT22;37741;49.748;8.490;2023-03-02T01:41:23;2.60;66.50
51661;DHT22;37741;49.748;8.490;2023-03-02T01:43:48;2.70;66.60
51661;DHT22;37741;49.748;8.490;2023-03-02T01:46:18;2.70;66.60
51661;DHT22;37741;49.748;8.490;2023-03-02T01:51:19;2.60;66.60
51661;DHT22;37741;49.748;8.490;2023-03-02T01:53:45;2.60;66.70
51661;DHT22;37741;49.748;8.490;2023-03-02T01:56:15;2.60;66.90
51661;DHT22;37741;49.748;8.490;2023-03-02T01:58:41;2.60;66.90
51661;DHT22;37741;49.748;8.490;2023-03-02T02:01:08;2.60;66.90
51661;DHT22;37741;49.748;8.490;2023-03-02T02:03:45;2.50;66.80
51661;DHT22;37741;49.748;8.490;2023-03-02T02:06:30;2.50;67.00
51661;DHT22;37741;49.748;8.490;2023-03-02T02:08:57;2.50;67.00
51661;DHT22;37741;49.748;8.490;2023-03-02T02:11:25;2.50;67.00
51661;DHT22;37741;49.748;8.490;2023-03-02T02:14:01;2.50;67.00
51661;DHT22;37741;49.748;8.490;2023-03-02T02:16:28;2.50;67.00
51661;DHT22;37741;49.748;8.490;2023-03-02T02:18:55;2.50;67.00
51661;DHT22;37741;49.748;8.490;2023-03-02T02:21:21;2.50;66.90
51661;DHT22;37741;49.748;8.490;2023-03-02T02:26:34;2.40;66.90
51661;DHT22;37741;49.748;8.490;2023-03-02T02:29:16;2.40;66.90
51661;DHT22;37741;49.748;8.490;2023-03-02T02:32:03;2.40;67.10
51661;DHT22;37741;49.748;8.490;2023-03-02T02:34:56;2.40;66.90
51661;DHT22;37741;49.748;8.490;2023-03-02T02:37:50;2.30;67.00
51661;DHT22;37741;49.748;8.490;2023-03-02T02:40:35;2.40;67.00
51661;DHT22;37741;49.748;8.490;2023-03-02T02:43:01;2.30;67.00
51661;DHT22;37741;49.748;8.490;2023-03-02T02:45:27;2.30;67.10
51661;DHT22;37741;49.748;8.490;2023-03-02T02:47:54;2.30;67.00
51661;DHT22;37741;49.748;8.490;2023-03-02T02:50:26;2.30;67.10
51661;DHT22;37741;49.748;8.490;2023-03-02T02:53:13;2.30;67.10
51661;DHT22;37741;49.748;8.490;2023-03-02T02:55:40;2.20;67.00
51661;DHT22;37741;49.748;8.490;2023-03-02T03:00:43;2.30;67.10
51661;DHT22;37741;49.748;8.490;2023-03-02T03:03:33;2.20;67.00
51661;DHT22;37741;49.748;8.490;2023-03-02T03:06:04;2.20;67.10
51661;DHT22;37741;49.748;8.490;2023-03-02T03:11:09;2.20;67.10
51661;DHT22;37741;49.748;8.490;2023-03-02T03:13:37;2.20;67.10
51661;DHT22;37741;49.748;8.490;2023-03-02T03:16:05;2.20;67.20
51661;DHT22;37741;49.748;8.490;2023-03-02T03:18:30;2.20;67.20
51661;DHT22;37741;49.748;8.490;2023-03-02T03:20:56;2.20;67.20
51661;DHT22;37741;49.748;8.490;2023-03-02T03:23:22;2.10;67.20
51661;DHT22;37741;49.748;8.490;2023-03-02T03:25:48;2.10;67.20
51661;DHT22;37741;49.748;8.490;2023-03-02T03:28:14;2.10;67.20
51661;DHT22;37741;49.748;8.490;2023-03-02T03:30:39;2.10;67.30
51661;DHT22;37741;49.748;8.490;2023-03-02T03:33:05;2.10;67.30
51661;DHT22;37741;49.748;8.490;2023-03-02T03:35:36;2.10;67.30
51661;DHT22;37741;49.748;8.490;2023-03-02T03:38:01;2.10;67.30
51661;DHT22;37741;49.748;8.490;2023-03-02T03:40:27;2.00;67.30
51661;DHT22;37741;49.748;8.490;2023-03-02T03:42:53;2.00;67.30
51661;DHT22;37741;49.748;8.490;2023-03-02T03:45:19;2.00;67.40
51661;DHT22;37741;49.748;8.490;2023-03-02T03:47:44;2.00;67.40
51661;DHT22;37741;49.748;8.490;2023-03-02T03:50:10;2.00;67.40
51661;DHT22;37741;49.748;8.490;2023-03-02T03:52:36;2.00;67.50
51661;DHT22;37741;49.748;8.490;2023-03-02T03:55:01;2.00;67.40
51661;DHT22;37741;49.748;8.490;2023-03-02T03:57:27;2.00;67.50
51661;DHT22;37741;49.748;8.490;2023-03-02T03:59:53;1.90;67.50
51661;DHT22;37741;49.748;8.490;2023-03-02T04:02:20;1.90;67.50
51661;DHT22;37741;49.748;8.490;2023-03-02T04:04:46;1.90;67.60
51661;DHT22;37741;49.748;8.490;2023-03-02T04:07:13;1.90;67.60
51661;DHT22;37741;49.748;8.490;2023-03-02T04:09:39;1.90;67.60
51661;DHT22;37741;49.748;8.490;2023-03-02T04:12:12;1.90;67.70
51661;DHT22;37741;49.748;8.490;2023-03-02T04:14:38;1.90;67.70
51661;DHT22;37741;49.748;8.490;2023-03-02T04:17:03;1.90;67.70
51661;DHT22;37741;49.748;8.490;2023-03-02T04:19:30;1.80;67.70
51661;DHT22;37741;49.748;8.490;2023-03-02T04:21:56;1.80;67.70
51661;DHT22;37741;49.748;8.490;2023-03-02T04:24:23;1.80;67.80
51661;DHT22;37741;49.748;8.490;2023-03-02T04:26:49;1.80;67.80
51661;DHT22;37741;49.748;8.490;2023-03-02T04:29:16;1.80;67.80
51661;DHT22;37741;49.748;8.490;2023-03-02T04:31:42;1.80;68.50
51661;DHT22;37741;49.748;8.490;2023-03-02T04:34:08;1.80;67.90
51661;DHT22;37741;49.748;8.490;2023-03-02T04:36:36;1.80;67.90
51661;DHT22;37741;49.748;8.490;2023-03-02T04:39:04;1.80;67.90
51661;DHT22;37741;49.748;8.490;2023-03-02T04:41:29;1.70;67.90
51661;DHT22;37741;49.748;8.490;2023-03-02T04:43:55;1.70;67.90
51661;DHT22;37741;49.748;8.490;2023-03-02T04:46:23;1.70;68.00
51661;DHT22;37741;49.748;8.490;2023-03-02T04:48:49;1.70;68.00
51661;DHT22;37741;49.748;8.490;2023-03-02T04:51:18;1.70;68.00
51661;DHT22;37741;49.748;8.490;2023-03-02T04:53:54;1.70;68.10
51661;DHT22;37741;49.748;8.490;2023-03-02T04:56:21;1.70;68.10
51661;DHT22;37741;49.748;8.490;2023-03-02T04:58:46;1.70;68.10
51661;DHT22;37741;49.748;8.490;2023-03-02T05:01:13;1.60;68.10
51661;DHT22;37741;49.748;8.490;2023-03-02T05:03:39;1.60;68.20
51661;DHT22;37741;49.748;8.490;2023-03-02T05:06:05;1.60;68.20
51661;DHT22;37741;49.748;8.490;2023-03-02T05:08:31;1.60;68.30
51661;DHT22;37741;49.748;8.490;2023-03-02T05:10:57;1.60;68.30
51661;DHT22;37741;49.748;8.490;2023-03-02T05:13:24;1.60;68.40
51661;DHT22;37741;49.748;8.490;2023-03-02T05:15:49;1.60;68.40
51661;DHT22;37741;49.748;8.490;2023-03-02T05:18:17;1.60;68.50
51661;DHT22;37741;49.748;8.490;2023-03-02T05:20:43;1.60;68.60
51661;DHT22;37741;49.748;8.490;2023-03-02T05:23:09;1.50;68.60
51661;DHT22;37741;49.748;8.490;2023-03-02T05:25:36;1.50;68.70
51661;DHT22;37741;49.748;8.490;2023-03-02T05:28:03;1.50;68.70
51661;DHT22;37741;49.748;8.490;2023-03-02T05:30:29;1.50;68.70
51661;DHT22;37741;49.748;8.490;2023-03-02T05:32:56;1.50;68.80
51661;DHT22;37741;49.748;8.490;2023-03-02T05:35:23;1.50;68.80
51661;DHT22;37741;49.748;8.490;2023-03-02T05:37:48;1.50;68.90
51661;DHT22;37741;49.748;8.490;2023-03-02T05:40:17;1.50;68.90
51661;DHT22;37741;49.748;8.490;2023-03-02T05:42:44;1.40;68.90
51661;DHT22;37741;49.748;8.490;2023-03-02T05:45:24;1.50;68.90
51661;DHT22;37741;49.748;8.490;2023-03-02T05:47:51;1.40;68.90
51661;DHT22;37741;49.748;8.490;2023-03-02T05:50:16;1.40;69.00
51661;DHT22;37741;49.748;8.490;2023-03-02T05:52:42;1.40;69.00
51661;DHT22;37741;49.748;8.490;2023-03-02T05:55:10;1.40;69.00
51661;DHT22;37741;49.748;8.490;2023-03-02T05:57:36;1.40;69.10
51661;DHT22;37741;49.748;8.490;2023-03-02T06:00:02;1.40;69.10
51661;DHT22;37741;49.748;8.490;2023-03-02T06:02:29;1.40;69.10
51661;DHT22;37741;49.748;8.490;2023-03-02T06:04:54;1.40;69.10
51661;DHT22;37741;49.748;8.490;2023-03-02T06:07:20;1.40;69.10
51661;DHT22;37741;49.748;8.490;2023-03-02T06:09:46;1.30;69.20
51661;DHT22;37741;49.748;8.490;2023-03-02T06:12:12;1.30;69.10
51661;DHT22;37741;49.748;8.490;2023-03-02T06:14:37;1.30;69.30
51661;DHT22;37741;49.748;8.490;2023-03-02T06:17:03;1.30;69.30
51661;DHT22;37741;49.748;8.490;2023-03-02T06:19:29;1.30;69.40
51661;DHT22;37741;49.748;8.490;2023-03-02T06:21:54;1.30;69.40
51661;DHT22;37741;49.748;8.490;2023-03-02T06:24:20;1.30;69.50
51661;DHT22;37741;49.748;8.490;2023-03-02T06:26:45;1.30;69.50
51661;DHT22;37741;49.748;8.490;2023-03-02T06:29:11;1.30;69.50
51661;DHT22;37741;49.748;8.490;2023-03-02T06:31:36;1.20;69.60
51661;DHT22;37741;49.748;8.490;2023-03-02T06:34:02;1.20;69.60
51661;DHT22;37741;49.748;8.490;2023-03-02T06:36:28;1.20;69.70
51661;DHT22;37741;49.748;8.490;2023-03-02T06:38:53;1.20;69.80
51661;DHT22;37741;49.748;8.490;2023-03-02T06:41:19;1.20;69.90
51661;DHT22;37741;49.748;8.490;2023-03-02T06:43:45;1.20;69.90
51661;DHT22;37741;49.748;8.490;2023-03-02T06:46:12;1.20;69.80
51661;DHT22;37741;49.748;8.490;2023-03-02T06:48:37;1.10;69.90
51661;DHT22;37741;49.748;8.490;2023-03-02T06:51:03;1.20;70.00
51661;DHT22;37741;49.748;8.490;2023-03-02T06:53:29;1.10;70.00
51661;DHT22;37741;49.748;8.490;2023-03-02T06:55:54;1.10;70.00
51661;DHT22;37741;49.748;8.490;2023-03-02T06:58:20;1.10;70.00
51661;DHT22;37741;49.748;8.490;2023-03-02T07:00:46;1.10;70.10
51661;DHT22;37741;49.748;8.490;2023-03-02T07:03:11;1.10;70.10
51661;DHT22;37741;49.748;8.490;2023-03-02T07:05:37;1.10;70.10
51661;DHT22;37741;49.748;8.490;2023-03-02T07:08:03;1.10;70.10
51661;DHT22;37741;49.748;8.490;2023-03-02T07:10:28;1.10;70.10
51661;DHT22;37741;49.748;8.490;2023-03-02T07:12:54;1.10;70.00
51661;DHT22;37741;49.748;8.490;2023-03-02T07:15:20;1.10;69.90
51661;DHT22;37741;49.748;8.490;2023-03-02T07:17:46;1.10;70.10
51661;DHT22;37741;49.748;8.490;2023-03-02T07:20:14;1.10;70.00
51661;DHT22;37741;49.748;8.490;2023-03-02T07:22:41;1.10;69.90
51661;DHT22;37741;49.748;8.490;2023-03-02T07:25:08;1.10;69.90
51661;DHT22;37741;49.748;8.490;2023-03-02T07:27:34;1.10;69.90
51661;DHT22;37741;49.748;8.490;2023-03-02T07:29:59;1.20;70.00
51661;DHT22;37741;49.748;8.490;2023-03-02T07:32:25;1.10;70.00
51661;DHT22;37741;49.748;8.490;2023-03-02T07:34:51;1.20;70.00
51661;DHT22;37741;49.748;8.490;2023-03-02T07:37:17;1.20;70.00
51661;DHT22;37741;49.748;8.490;2023-03-02T07:39:42;1.20;70.00
51661;DHT22;37741;49.748;8.490;2023-03-02T07:42:10;1.20;70.60
51661;DHT22;37741;49.748;8.490;2023-03-02T07:44:36;1.20;70.00
51661;DHT22;37741;49.748;8.490;2023-03-02T07:47:02;1.20;70.10
51661;DHT22;37741;49.748;8.490;2023-03-02T07:49:28;1.20;70.10
51661;DHT22;37741;49.748;8.490;2023-03-02T07:51:53;1.20;70.10
51661;DHT22;37741;49.748;8.490;2023-03-02T07:54:19;1.20;70.00
51661;DHT22;37741;49.748;8.490;2023-03-02T07:56:44;1.20;69.90
51661;DHT22;37741;49.748;8.490;2023-03-02T07:59:11;1.20;69.90
51661;DHT22;37741;49.748;8.490;2023-03-02T08:01:37;1.20;70.00
51661;DHT22;37741;49.748;8.490;2023-03-02T08:04:02;1.20;70.00
51661;DHT22;37741;49.748;8.490;2023-03-02T08:06:28;1.20;69.90
51661;DHT22;37741;49.748;8.490;2023-03-02T08:08:54;1.20;69.90
51661;DHT22;37741;49.748;8.490;2023-03-02T08:11:19;1.20;69.80
51661;DHT22;37741;49.748;8.490;2023-03-02T08:13:45;1.30;69.90
51661;DHT22;37741;49.748;8.490;2023-03-02T08:16:13;1.30;69.80
51661;DHT22;37741;49.748;8.490;2023-03-02T08:18:39;1.30;69.80
51661;DHT22;37741;49.748;8.490;2023-03-02T08:21:14;1.30;69.80
51661;DHT22;37741;49.748;8.490;2023-03-02T08:23:40;1.30;69.80
51661;DHT22;37741;49.748;8.490;2023-03-02T08:26:06;1.30;69.80
51661;DHT22;37741;49.748;8.490;2023-03-02T08:28:32;1.30;69.80
51661;DHT22;37741;49.748;8.490;2023-03-02T08:31:00;1.30;69.80
51661;DHT22;37741;49.748;8.490;2023-03-02T08:33:26;1.30;70.50
51661;DHT22;37741;49.748;8.490;2023-03-02T08:35:57;1.30;69.80
51661;DHT22;37741;49.748;8.490;2023-03-02T08:38:23;1.30;69.90
51661;DHT22;37741;49.748;8.490;2023-03-02T08:40:50;1.30;69.90
51661;DHT22;37741;49.748;8.490;2023-03-02T08:43:17;1.40;69.90
51661;DHT22;37741;49.748;8.490;2023-03-02T08:45:42;1.40;70.00
51661;DHT22;37741;49.748;8.490;2023-03-02T08:48:08;1.40;70.20
51661;DHT22;37741;49.748;8.490;2023-03-02T08:50:33;1.40;70.10
51661;DHT22;37741;49.748;8.490;2023-03-02T08:52:59;1.40;70.00
51661;DHT22;37741;49.748;8.490;2023-03-02T08:55:24;1.40;70.00
51661;DHT22;37741;49.748;8.490;2023-03-02T08:57:50;1.40;70.00
51661;DHT22;37741;49.748;8.490;2023-03-02T09:00:16;1.40;70.00
51661;DHT22;37741;49.748;8.490;2023-03-02T09:02:43;1.50;70.10
51661;DHT22;37741;49.748;8.490;2023-03-02T09:05:08;1.50;70.10
51661;DHT22;37741;49.748;8.490;2023-03-02T09:07:34;1.50;70.10
51661;DHT22;37741;49.748;8.490;2023-03-02T09:10:00;1.50;70.20
51661;DHT22;37741;49.748;8.490;2023-03-02T09:12:25;1.50;70.20
51661;DHT22;37741;49.748;8.490;2023-03-02T09:14:51;1.50;70.30
51661;DHT22;37741;49.748;8.490;2023-03-02T09:17:17;1.50;70.20
51661;DHT22;37741;49.748;8.490;2023-03-02T09:19:42;1.50;70.20
51661;DHT22;37741;49.748;8.490;2023-03-02T09:22:08;1.50;70.30
51661;DHT22;37741;49.748;8.490;2023-03-02T09:24:35;1.60;70.40
51661;DHT22;37741;49.748;8.490;2023-03-02T09:27:01;1.50;70.50
51661;DHT22;37741;49.748;8.490;2023-03-02T09:29:27;1.60;70.50
51661;DHT22;37741;49.748;8.490;2023-03-02T09:31:53;1.60;70.50
51661;DHT22;37741;49.748;8.490;2023-03-02T09:34:18;1.60;70.60
51661;DHT22;37741;49.748;8.490;2023-03-02T09:36:44;1.60;70.60
51661;DHT22;37741;49.748;8.490;2023-03-02T09:39:10;1.60;70.60
51661;DHT22;37741;49.748;8.490;2023-03-02T09:42:04;1.60;70.70
51661;DHT22;37741;49.748;8.490;2023-03-02T09:47:08;1.70;70.90
51661;DHT22;37741;49.748;8.490;2023-03-02T09:49:44;1.70;70.90
51661;DHT22;37741;49.748;8.490;2023-03-02T09:54:46;1.70;71.00
51661;DHT22;37741;49.748;8.490;2023-03-02T09:57:27;1.70;70.90
51661;DHT22;37741;49.748;8.490;2023-03-02T10:00:06;1.80;71.00
51661;DHT22;37741;49.748;8.490;2023-03-02T10:02:43;1.80;70.90
51661;DHT22;37741;49.748;8.490;2023-03-02T10:05:16;1.80;71.20
51661;DHT22;37741;49.748;8.490;2023-03-02T10:07:43;1.80;71.10
51661;DHT22;37741;49.748;8.490;2023-03-02T10:13:29;1.90;71.10
51661;DHT22;37741;49.748;8.490;2023-03-02T10:16:25;1.90;71.40
51661;DHT22;37741;49.748;8.490;2023-03-02T10:19:21;1.90;71.40
51661;DHT22;37741;49.748;8.490;2023-03-02T10:24:28;2.00;71.60
51661;DHT22;37741;49.748;8.490;2023-03-02T10:27:27;2.00;71.60
51661;DHT22;37741;49.748;8.490;2023-03-02T10:30:03;2.00;71.90
51661;DHT22;37741;49.748;8.490;2023-03-02T10:32:36;2.10;72.00
51661;DHT22;37741;49.748;8.490;2023-03-02T10:35:16;2.10;71.90
51661;DHT22;37741;49.748;8.490;2023-03-02T10:37:42;2.20;72.10
51661;DHT22;37741;49.748;8.490;2023-03-02T10:42:52;2.20;71.90
51661;DHT22;37741;49.748;8.490;2023-03-02T10:45:28;2.20;71.90
51661;DHT22;37741;49.748;8.490;2023-03-02T10:48:05;2.30;72.10
51661;DHT22;37741;49.748;8.490;2023-03-02T10:50:31;2.30;72.20
51661;DHT22;37741;49.748;8.490;2023-03-02T10:52:57;2.30;72.20
51661;DHT22;37741;49.748;8.490;2023-03-02T10:55:23;2.30;72.20
51661;DHT22;37741;49.748;8.490;2023-03-02T10:58:17;2.40;72.30
51661;DHT22;37741;49.748;8.490;2023-03-02T11:01:04;2.40;72.40
51661;DHT22;37741;49.748;8.490;2023-03-02T11:03:31;2.40;72.40
51661;DHT22;37741;49.748;8.490;2023-03-02T11:06:08;2.50;72.50
51661;DHT22;37741;49.748;8.490;2023-03-02T11:08:34;2.50;72.40
51661;DHT22;37741;49.748;8.490;2023-03-02T11:11:03;2.50;72.40
51661;DHT22;37741;49.748;8.490;2023-03-02T11:13:35;2.60;72.50
51661;DHT22;37741;49.748;8.490;2023-03-02T11:16:01;2.60;72.50
51661;DHT22;37741;49.748;8.490;2023-03-02T11:18:37;2.60;72.40
51661;DHT22;37741;49.748;8.490;2023-03-02T11:21:15;2.70;72.60
51661;DHT22;37741;49.748;8.490;2023-03-02T11:23:54;2.70;72.60
51661;DHT22;37741;49.748;8.490;2023-03-02T11:26:29;2.80;72.80
51661;DHT22;37741;49.748;8.490;2023-03-02T11:28:59;2.80;72.50
51661;DHT22;37741;49.748;8.490;2023-03-02T11:31:49;2.80;72.40
51661;DHT22;37741;49.748;8.490;2023-03-02T11:34:48;2.90;72.40
51661;DHT22;37741;49.748;8.490;2023-03-02T11:40:25;3.00;72.20
51661;DHT22;37741;49.748;8.490;2023-03-02T11:42:56;3.00;72.30
51661;DHT22;37741;49.748;8.490;2023-03-02T11:45:29;3.10;72.20
51661;DHT22;37741;49.748;8.490;2023-03-02T11:48:16;3.10;72.20
51661;DHT22;37741;49.748;8.490;2023-03-02T11:50:59;3.20;72.20
51661;DHT22;37741;49.748;8.490;2023-03-02T11:53:30;3.20;72.10
51661;DHT22;37741;49.748;8.490;2023-03-02T11:55:57;3.20;72.00
51661;DHT22;37741;49.748;8.490;2023-03-02T11:58:25;3.30;72.10
51661;DHT22;37741;49.748;8.490;2023-03-02T12:00:52;3.30;71.90
51661;DHT22;37741;49.748;8.490;2023-03-02T12:03:20;3.30;71.80
51661;DHT22;37741;49.748;8.490;2023-03-02T12:06:00;3.40;72.00
51661;DHT22;37741;49.748;8.490;2023-03-02T12:10:57;3.50;72.20
51661;DHT22;37741;49.748;8.490;2023-03-02T12:13:28;3.50;71.60
51661;DHT22;37741;49.748;8.490;2023-03-02T12:15:54;3.60;71.70
51661;DHT22;37741;49.748;8.490;2023-03-02T12:21:04;3.60;71.70
51661;DHT22;37741;49.748;8.490;2023-03-02T12:23:33;3.70;71.50
51661;DHT22;37741;49.748;8.490;2023-03-02T12:31:50;3.80;71.30
51661;DHT22;37741;49.748;8.490;2023-03-02T12:34:37;3.90;71.00
51661;DHT22;37741;49.748;8.490;2023-03-02T12:52:00;4.20;70.60
51661;DHT22;37741;49.748;8.490;2023-03-02T12:54:31;4.30;70.70
51661;DHT22;37741;49.748;8.490;2023-03-02T12:57:18;4.30;70.40
51661;DHT22;37741;49.748;8.490;2023-03-02T12:59:51;4.40;70.60
51661;DHT22;37741;49.748;8.490;2023-03-02T13:02:23;4.40;70.20
51661;DHT22;37741;49.748;8.490;2023-03-02T13:05:06;4.50;69.80
51661;DHT22;37741;49.748;8.490;2023-03-02T13:07:38;4.60;69.80
51661;DHT22;37741;49.748;8.490;2023-03-02T13:10:26;4.60;70.10
51661;DHT22;37741;49.748;8.490;2023-03-02T13:12:52;4.60;69.60
51661;DHT22;37741;49.748;8.490;2023-03-02T13:15:18;4.70;69.30
51661;DHT22;37741;49.748;8.490;2023-03-02T13:17:44;4.80;69.60
51661;DHT22;37741;49.748;8.490;2023-03-02T13:20:17;4.80;69.10
51661;DHT22;37741;49.748;8.490;2023-03-02T13:22:43;4.90;69.20
51661;DHT22;37741;49.748;8.490;2023-03-02T13:25:27;4.90;69.70
51661;DHT22;37741;49.748;8.490;2023-03-02T13:27:59;5.00;69.30
51661;DHT22;37741;49.748;8.490;2023-03-02T13:30:31;5.10;69.00
51661;DHT22;37741;49.748;8.490;2023-03-02T13:33:03;5.10;68.70
51661;DHT22;37741;49.748;8.490;2023-03-02T13:35:32;5.10;68.80
51661;DHT22;37741;49.748;8.490;2023-03-02T13:38:15;5.20;69.10
51661;DHT22;37741;49.748;8.490;2023-03-02T13:40:41;5.30;68.60
51661;DHT22;37741;49.748;8.490;2023-03-02T13:43:36;5.30;68.90
51661;DHT22;37741;49.748;8.490;2023-03-02T13:48:36;5.40;68.20
51661;DHT22;37741;49.748;8.490;2023-03-02T13:51:13;5.50;68.40
51661;DHT22;37741;49.748;8.490;2023-03-02T13:53:43;5.60;68.60
51661;DHT22;37741;49.748;8.490;2023-03-02T13:56:12;5.60;68.50
51661;DHT22;37741;49.748;8.490;2023-03-02T13:58:39;5.70;68.50
51661;DHT22;37741;49.748;8.490;2023-03-02T14:01:05;5.70;68.60
51661;DHT22;37741;49.748;8.490;2023-03-02T14:03:31;5.80;68.70
51661;DHT22;37741;49.748;8.490;2023-03-02T14:05:57;5.90;68.40
51661;DHT22;37741;49.748;8.490;2023-03-02T14:08:23;5.90;68.20
51661;DHT22;37741;49.748;8.490;2023-03-02T14:10:51;6.00;68.20
51661;DHT22;37741;49.748;8.490;2023-03-02T14:13:22;6.00;68.10
51661;DHT22;37741;49.748;8.490;2023-03-02T14:15:50;6.10;67.80
51661;DHT22;37741;49.748;8.490;2023-03-02T14:18:47;6.10;68.00
51661;DHT22;37741;49.748;8.490;2023-03-02T14:21:18;6.20;67.80
51661;DHT22;37741;49.748;8.490;2023-03-02T14:23:45;6.30;67.60
51661;DHT22;37741;49.748;8.490;2023-03-02T14:28:42;6.40;66.90
51661;DHT22;37741;49.748;8.490;2023-03-02T14:31:09;6.40;66.80
51661;DHT22;37741;49.748;8.490;2023-03-02T14:33:35;6.50;66.70
51661;DHT22;37741;49.748;8.490;2023-03-02T14:36:02;6.60;66.50
51661;DHT22;37741;49.748;8.490;2023-03-02T14:38:28;6.60;66.30
51661;DHT22;37741;49.748;8.490;2023-03-02T14:40:55;6.70;66.20
51661;DHT22;37741;49.748;8.490;2023-03-02T14:43:21;6.70;65.90
51661;DHT22;37741;49.748;8.490;2023-03-02T14:45:48;6.80;65.60
51661;DHT22;37741;49.748;8.490;2023-03-02T14:48:14;6.90;65.70
51661;DHT22;37741;49.748;8.490;2023-03-02T14:50:44;6.90;66.10
51661;DHT22;37741;49.748;8.490;2023-03-02T14:53:16;7.00;65.50
51661;DHT22;37741;49.748;8.490;2023-03-02T14:55:42;7.00;65.00
51661;DHT22;37741;49.748;8.490;2023-03-02T14:58:16;7.10;65.00
51661;DHT22;37741;49.748;8.490;2023-03-02T15:00:43;7.20;64.90
51661;DHT22;37741;49.748;8.490;2023-03-02T15:03:14;7.20;64.90
51661;DHT22;37741;49.748;8.490;2023-03-02T15:05:41;7.20;64.70
51661;DHT22;37741;49.748;8.490;2023-03-02T15:08:12;7.30;64.20
51661;DHT22;37741;49.748;8.490;2023-03-02T15:10:38;7.30;64.40
51661;DHT22;37741;49.748;8.490;2023-03-02T15:13:07;7.40;65.00
51661;DHT22;37741;49.748;8.490;2023-03-02T15:15:33;7.40;64.40
51661;DHT22;37741;49.748;8.490;2023-03-02T15:17:58;7.50;64.30
51661;DHT22;37741;49.748;8.490;2023-03-02T15:20:24;7.50;64.10
51661;DHT22;37741;49.748;8.490;2023-03-02T15:22:49;7.50;64.10
51661;DHT22;37741;49.748;8.490;2023-03-02T15:25:15;7.60;64.00
51661;DHT22;37741;49.748;8.490;2023-03-02T15:27:41;7.60;63.60
51661;DHT22;37741;49.748;8.490;2023-03-02T15:30:07;7.70;63.10
51661;DHT22;37741;49.748;8.490;2023-03-02T15:32:35;7.70;63.30
51661;DHT22;37741;49.748;8.490;2023-03-02T15:35:01;7.80;62.60
51661;DHT22;37741;49.748;8.490;2023-03-02T15:37:28;7.90;62.60
51661;DHT22;37741;49.748;8.490;2023-03-02T15:39:55;8.00;62.90
51661;DHT22;37741;49.748;8.490;2023-03-02T15:42:21;8.00;62.20
51661;DHT22;37741;49.748;8.490;2023-03-02T15:44:47;8.10;62.10
51661;DHT22;37741;49.748;8.490;2023-03-02T15:47:13;8.10;61.70
51661;DHT22;37741;49.748;8.490;2023-03-02T15:49:39;8.20;61.50
51661;DHT22;37741;49.748;8.490;2023-03-02T15:52:04;8.20;61.60
51661;DHT22;37741;49.748;8.490;2023-03-02T15:54:30;8.20;61.60
51661;DHT22;37741;49.748;8.490;2023-03-02T15:56:56;8.20;60.60
51661;DHT22;37741;49.748;8.490;2023-03-02T15:59:24;8.20;61.20
51661;DHT22;37741;49.748;8.490;2023-03-02T16:01:50;8.20;61.20
51661;DHT22;37741;49.748;8.490;2023-03-02T16:04:16;8.20;61.20
51661;DHT22;37741;49.748;8.490;2023-03-02T16:06:42;8.20;60.80
51661;DHT22;37741;49.748;8.490;2023-03-02T16:09:08;8.20;60.80
51661;DHT22;37741;49.748;8.490;2023-03-02T16:11:33;8.20;61.00
51661;DHT22;37741;49.748;8.490;2023-03-02T16:13:59;8.30;61.10
51661;DHT22;37741;49.748;8.490;2023-03-02T16:16:25;8.20;60.50
51661;DHT22;37741;49.748;8.490;2023-03-02T16:18:56;8.20;60.80
51661;DHT22;37741;49.748;8.490;2023-03-02T16:21:23;8.20;60.90
51661;DHT22;37741;49.748;8.490;2023-03-02T16:23:50;8.20;60.60
51661;DHT22;37741;49.748;8.490;2023-03-02T16:26:18;8.20;60.40
51661;DHT22;37741;49.748;8.490;2023-03-02T16:28:44;8.30;60.50
51661;DHT22;37741;49.748;8.490;2023-03-02T16:31:13;8.30;60.20
51661;DHT22;37741;49.748;8.490;2023-03-02T16:33:39;8.40;60.20
51661;DHT22;37741;49.748;8.490;2023-03-02T16:36:06;8.40;60.10
51661;DHT22;37741;49.748;8.490;2023-03-02T16:38:32;8.40;60.30
51661;DHT22;37741;49.748;8.490;2023-03-02T16:40:58;8.40;60.40
51661;DHT22;37741;49.748;8.490;2023-03-02T16:43:23;8.40;60.40
51661;DHT22;37741;49.748;8.490;2023-03-02T16:45:52;8.40;60.50
51661;DHT22;37741;49.748;8.490;2023-03-02T16:48:18;8.40;60.50
51661;DHT22;37741;49.748;8.490;2023-03-02T16:50:53;8.30;60.40
51661;DHT22;37741;49.748;8.490;2023-03-02T16:53:19;8.30;60.50